Terminal Aerodrome Forecast
Issued by NWS Charleston, WV

Home | Current Version | Previous Version | Text Only | Print | Product List | Glossary On
Versions: 1 2 3 4 5 6 7 8 9 10 11 12 13 14 15 16 17 18 19 20 21 22 23
000
FTUS41 KRLX 010539
TAFPKB
TAF
KPKB 010539Z 0106/0206 14007KT 6SM -RA BR SCT008 BKN070
      TEMPO 0106/0109 2SM -SHRA BR BKN006
     FM011000 18006KT 5SM BR OVC025
     FM011100 20005KT P6SM OVC035
     FM011600 22005KT P6SM VCTS BKN040CB=

USA.gov is the U.S. government's official web portal to all federal, state and local government web resources and services.